sensor_id;sensor_type;location;lat;lon;timestamp;P1;durP1;ratioP1;P2;durP2;ratioP2
15385;SDS011;7791;47.246;9.648;2023-04-03T00:00:35;1.67;;;1.30;;
15385;SDS011;7791;47.246;9.648;2023-04-03T00:03:00;1.40;;;1.30;;
15385;SDS011;7791;47.246;9.648;2023-04-03T00:05:26;1.40;;;1.30;;
15385;SDS011;7791;47.246;9.648;2023-04-03T00:07:52;1.93;;;1.20;;
15385;SDS011;7791;47.246;9.648;2023-04-03T00:10:18;1.23;;;1.13;;
15385;SDS011;7791;47.246;9.648;2023-04-03T00:12:43;1.30;;;1.13;;
15385;SDS011;7791;47.246;9.648;2023-04-03T00:15:09;1.67;;;1.10;;
15385;SDS011;7791;47.246;9.648;2023-04-03T00:17:37;1.50;;;1.10;;
15385;SDS011;7791;47.246;9.648;2023-04-03T00:20:06;1.40;;;1.17;;
15385;SDS011;7791;47.246;9.648;2023-04-03T00:22:32;1.70;;;1.10;;
15385;SDS011;7791;47.246;9.648;2023-04-03T00:24:58;2.70;;;1.07;;
15385;SDS011;7791;47.246;9.648;2023-04-03T00:27:24;1.40;;;0.90;;
15385;SDS011;7791;47.246;9.648;2023-04-03T00:29:49;1.23;;;0.90;;
15385;SDS011;7791;47.246;9.648;2023-04-03T00:32:15;1.20;;;1.03;;
15385;SDS011;7791;47.246;9.648;2023-04-03T00:34:42;2.03;;;1.00;;
15385;SDS011;7791;47.246;9.648;2023-04-03T00:37:08;2.67;;;1.30;;
15385;SDS011;7791;47.246;9.648;2023-04-03T00:39:34;1.70;;;1.33;;
15385;SDS011;7791;47.246;9.648;2023-04-03T00:42:00;2.47;;;1.20;;
15385;SDS011;7791;47.246;9.648;2023-04-03T00:47:25;1.30;;;1.20;;
15385;SDS011;7791;47.246;9.648;2023-04-03T00:49:52;1.40;;;1.30;;
15385;SDS011;7791;47.246;9.648;2023-04-03T00:52:19;1.30;;;1.10;;
15385;SDS011;7791;47.246;9.648;2023-04-03T00:54:49;2.57;;;1.43;;
15385;SDS011;7791;47.246;9.648;2023-04-03T00:57:17;1.27;;;1.17;;
15385;SDS011;7791;47.246;9.648;2023-04-03T00:59:44;1.43;;;1.20;;
15385;SDS011;7791;47.246;9.648;2023-04-03T01:02:13;1.60;;;1.37;;
15385;SDS011;7791;47.246;9.648;2023-04-03T01:04:39;1.43;;;1.17;;
15385;SDS011;7791;47.246;9.648;2023-04-03T01:07:09;1.77;;;1.37;;
15385;SDS011;7791;47.246;9.648;2023-04-03T01:09:37;1.27;;;1.17;;
15385;SDS011;7791;47.246;9.648;2023-04-03T01:12:13;1.20;;;1.10;;
15385;SDS011;7791;47.246;9.648;2023-04-03T01:14:40;1.53;;;1.30;;
15385;SDS011;7791;47.246;9.648;2023-04-03T01:17:22;1.60;;;1.23;;
15385;SDS011;7791;47.246;9.648;2023-04-03T01:19:56;1.87;;;1.40;;
15385;SDS011;7791;47.246;9.648;2023-04-03T01:22:38;1.40;;;1.30;;
15385;SDS011;7791;47.246;9.648;2023-04-03T01:25:08;1.87;;;1.53;;
15385;SDS011;7791;47.246;9.648;2023-04-03T01:27:34;1.50;;;1.40;;
15385;SDS011;7791;47.246;9.648;2023-04-03T01:30:00;1.40;;;1.27;;
15385;SDS011;7791;47.246;9.648;2023-04-03T01:32:27;1.60;;;1.43;;
15385;SDS011;7791;47.246;9.648;2023-04-03T01:34:53;1.90;;;1.70;;
15385;SDS011;7791;47.246;9.648;2023-04-03T01:37:18;3.03;;;2.00;;
15385;SDS011;7791;47.246;9.648;2023-04-03T01:39:44;3.10;;;2.40;;
15385;SDS011;7791;47.246;9.648;2023-04-03T01:42:13;2.40;;;1.93;;
15385;SDS011;7791;47.246;9.648;2023-04-03T01:44:38;2.27;;;1.97;;
15385;SDS011;7791;47.246;9.648;2023-04-03T01:47:05;2.20;;;2.00;;
15385;SDS011;7791;47.246;9.648;2023-04-03T01:49:33;2.67;;;2.30;;
15385;SDS011;7791;47.246;9.648;2023-04-03T01:51:58;2.27;;;2.03;;
15385;SDS011;7791;47.246;9.648;2023-04-03T01:54:24;2.90;;;2.60;;
15385;SDS011;7791;47.246;9.648;2023-04-03T01:56:50;3.40;;;2.43;;
15385;SDS011;7791;47.246;9.648;2023-04-03T01:59:15;3.00;;;2.30;;
15385;SDS011;7791;47.246;9.648;2023-04-03T02:01:41;3.07;;;2.60;;
15385;SDS011;7791;47.246;9.648;2023-04-03T02:04:07;2.90;;;2.23;;
15385;SDS011;7791;47.246;9.648;2023-04-03T02:06:34;2.57;;;2.13;;
15385;SDS011;7791;47.246;9.648;2023-04-03T02:09:00;3.17;;;2.60;;
15385;SDS011;7791;47.246;9.648;2023-04-03T02:11:25;2.97;;;2.40;;
15385;SDS011;7791;47.246;9.648;2023-04-03T02:13:51;3.20;;;2.80;;
15385;SDS011;7791;47.246;9.648;2023-04-03T02:16:17;4.13;;;2.80;;
15385;SDS011;7791;47.246;9.648;2023-04-03T02:18:43;3.70;;;2.60;;
15385;SDS011;7791;47.246;9.648;2023-04-03T02:21:08;4.27;;;3.13;;
15385;SDS011;7791;47.246;9.648;2023-04-03T02:23:35;3.20;;;2.90;;
15385;SDS011;7791;47.246;9.648;2023-04-03T02:26:05;4.20;;;3.33;;
15385;SDS011;7791;47.246;9.648;2023-04-03T02:28:32;4.00;;;2.93;;
15385;SDS011;7791;47.246;9.648;2023-04-03T02:30:58;3.97;;;3.10;;
15385;SDS011;7791;47.246;9.648;2023-04-03T02:33:23;3.77;;;3.37;;
15385;SDS011;7791;47.246;9.648;2023-04-03T02:35:51;4.00;;;2.97;;
15385;SDS011;7791;47.246;9.648;2023-04-03T02:38:18;3.50;;;3.03;;
15385;SDS011;7791;47.246;9.648;2023-04-03T02:40:45;3.60;;;3.23;;
15385;SDS011;7791;47.246;9.648;2023-04-03T02:43:11;4.23;;;3.30;;
15385;SDS011;7791;47.246;9.648;2023-04-03T02:45:36;3.90;;;3.50;;
15385;SDS011;7791;47.246;9.648;2023-04-03T02:48:02;5.07;;;3.73;;
15385;SDS011;7791;47.246;9.648;2023-04-03T02:50:28;5.17;;;3.90;;
15385;SDS011;7791;47.246;9.648;2023-04-03T02:52:54;4.87;;;3.93;;
15385;SDS011;7791;47.246;9.648;2023-04-03T02:55:22;6.30;;;4.57;;
15385;SDS011;7791;47.246;9.648;2023-04-03T02:57:49;6.53;;;4.70;;
15385;SDS011;7791;47.246;9.648;2023-04-03T03:00:15;6.13;;;4.90;;
15385;SDS011;7791;47.246;9.648;2023-04-03T03:02:41;6.73;;;4.87;;
15385;SDS011;7791;47.246;9.648;2023-04-03T03:05:07;6.50;;;4.67;;
15385;SDS011;7791;47.246;9.648;2023-04-03T03:07:33;6.43;;;5.23;;
15385;SDS011;7791;47.246;9.648;2023-04-03T03:09:59;7.77;;;5.40;;
15385;SDS011;7791;47.246;9.648;2023-04-03T03:12:25;7.40;;;5.20;;
15385;SDS011;7791;47.246;9.648;2023-04-03T03:14:52;7.83;;;5.63;;
15385;SDS011;7791;47.246;9.648;2023-04-03T03:17:17;7.07;;;5.43;;
15385;SDS011;7791;47.246;9.648;2023-04-03T03:19:43;8.10;;;5.37;;
15385;SDS011;7791;47.246;9.648;2023-04-03T03:22:09;8.03;;;5.50;;
15385;SDS011;7791;47.246;9.648;2023-04-03T03:24:35;7.47;;;5.57;;
15385;SDS011;7791;47.246;9.648;2023-04-03T03:27:01;7.00;;;5.10;;
15385;SDS011;7791;47.246;9.648;2023-04-03T03:29:26;7.50;;;5.57;;
15385;SDS011;7791;47.246;9.648;2023-04-03T03:31:53;9.07;;;5.77;;
15385;SDS011;7791;47.246;9.648;2023-04-03T03:34:19;9.37;;;6.47;;
15385;SDS011;7791;47.246;9.648;2023-04-03T03:36:45;7.30;;;5.90;;
15385;SDS011;7791;47.246;9.648;2023-04-03T03:39:11;9.37;;;5.97;;
15385;SDS011;7791;47.246;9.648;2023-04-03T03:41:37;9.03;;;6.13;;
15385;SDS011;7791;47.246;9.648;2023-04-03T03:44:03;10.63;;;6.33;;
15385;SDS011;7791;47.246;9.648;2023-04-03T03:46:29;9.17;;;6.30;;
15385;SDS011;7791;47.246;9.648;2023-04-03T03:48:56;11.40;;;6.57;;
15385;SDS011;7791;47.246;9.648;2023-04-03T03:51:22;9.53;;;6.53;;
15385;SDS011;7791;47.246;9.648;2023-04-03T03:53:48;11.40;;;6.83;;
15385;SDS011;7791;47.246;9.648;2023-04-03T03:56:13;10.83;;;7.57;;
15385;SDS011;7791;47.246;9.648;2023-04-03T03:58:39;9.90;;;6.30;;
15385;SDS011;7791;47.246;9.648;2023-04-03T04:01:05;8.40;;;6.63;;
15385;SDS011;7791;47.246;9.648;2023-04-03T04:03:32;9.37;;;6.30;;
15385;SDS011;7791;47.246;9.648;2023-04-03T04:06:00;12.93;;;7.67;;
15385;SDS011;7791;47.246;9.648;2023-04-03T04:08:25;9.83;;;7.13;;
15385;SDS011;7791;47.246;9.648;2023-04-03T04:10:51;11.73;;;7.57;;
15385;SDS011;7791;47.246;9.648;2023-04-03T04:13:17;10.63;;;7.50;;
15385;SDS011;7791;47.246;9.648;2023-04-03T04:15:43;9.37;;;6.93;;
15385;SDS011;7791;47.246;9.648;2023-04-03T04:18:09;9.40;;;7.37;;
15385;SDS011;7791;47.246;9.648;2023-04-03T04:20:35;10.27;;;7.20;;
15385;SDS011;7791;47.246;9.648;2023-04-03T04:23:02;10.37;;;7.73;;
15385;SDS011;7791;47.246;9.648;2023-04-03T04:25:28;10.50;;;7.70;;
15385;SDS011;7791;47.246;9.648;2023-04-03T04:27:53;11.63;;;7.93;;
15385;SDS011;7791;47.246;9.648;2023-04-03T04:30:19;11.03;;;7.80;;
15385;SDS011;7791;47.246;9.648;2023-04-03T04:32:45;12.00;;;7.30;;
15385;SDS011;7791;47.246;9.648;2023-04-03T04:35:11;13.17;;;8.20;;
15385;SDS011;7791;47.246;9.648;2023-04-03T04:37:36;10.77;;;7.63;;
15385;SDS011;7791;47.246;9.648;2023-04-03T04:40:04;12.70;;;8.67;;
15385;SDS011;7791;47.246;9.648;2023-04-03T04:42:33;11.53;;;7.83;;
15385;SDS011;7791;47.246;9.648;2023-04-03T04:44:59;11.70;;;8.07;;
15385;SDS011;7791;47.246;9.648;2023-04-03T04:47:25;11.40;;;7.67;;
15385;SDS011;7791;47.246;9.648;2023-04-03T04:49:52;13.37;;;8.17;;
15385;SDS011;7791;47.246;9.648;2023-04-03T04:52:18;11.30;;;7.40;;
15385;SDS011;7791;47.246;9.648;2023-04-03T04:54:44;12.30;;;7.77;;
15385;SDS011;7791;47.246;9.648;2023-04-03T04:57:11;10.43;;;7.40;;
15385;SDS011;7791;47.246;9.648;2023-04-03T04:59:37;11.57;;;7.70;;
15385;SDS011;7791;47.246;9.648;2023-04-03T05:02:03;11.27;;;8.00;;
15385;SDS011;7791;47.246;9.648;2023-04-03T05:04:28;13.53;;;7.80;;
15385;SDS011;7791;47.246;9.648;2023-04-03T05:06:54;12.77;;;8.47;;
15385;SDS011;7791;47.246;9.648;2023-04-03T05:09:20;12.63;;;7.97;;
15385;SDS011;7791;47.246;9.648;2023-04-03T05:11:46;12.20;;;8.40;;
15385;SDS011;7791;47.246;9.648;2023-04-03T05:14:13;11.53;;;8.10;;
15385;SDS011;7791;47.246;9.648;2023-04-03T05:16:39;14.33;;;8.57;;
15385;SDS011;7791;47.246;9.648;2023-04-03T05:19:05;12.70;;;8.83;;
15385;SDS011;7791;47.246;9.648;2023-04-03T05:21:30;13.03;;;9.00;;
15385;SDS011;7791;47.246;9.648;2023-04-03T05:23:56;12.37;;;8.37;;
15385;SDS011;7791;47.246;9.648;2023-04-03T05:26:22;14.40;;;9.53;;
15385;SDS011;7791;47.246;9.648;2023-04-03T05:28:48;12.23;;;8.90;;
15385;SDS011;7791;47.246;9.648;2023-04-03T05:31:15;14.77;;;9.10;;
15385;SDS011;7791;47.246;9.648;2023-04-03T05:33:41;15.97;;;11.33;;
15385;SDS011;7791;47.246;9.648;2023-04-03T05:36:07;13.00;;;8.53;;
15385;SDS011;7791;47.246;9.648;2023-04-03T05:38:33;14.40;;;9.13;;
15385;SDS011;7791;47.246;9.648;2023-04-03T05:40:59;16.03;;;9.97;;
15385;SDS011;7791;47.246;9.648;2023-04-03T05:43:25;15.13;;;9.93;;
15385;SDS011;7791;47.246;9.648;2023-04-03T05:45:51;14.43;;;9.63;;
15385;SDS011;7791;47.246;9.648;2023-04-03T05:48:18;16.50;;;9.27;;
15385;SDS011;7791;47.246;9.648;2023-04-03T05:50:44;12.80;;;8.57;;
15385;SDS011;7791;47.246;9.648;2023-04-03T05:53:12;13.07;;;8.90;;
15385;SDS011;7791;47.246;9.648;2023-04-03T05:55:42;13.33;;;8.87;;
15385;SDS011;7791;47.246;9.648;2023-04-03T05:58:08;13.53;;;9.63;;
15385;SDS011;7791;47.246;9.648;2023-04-03T06:00:33;14.07;;;9.17;;
15385;SDS011;7791;47.246;9.648;2023-04-03T06:02:59;13.57;;;9.13;;
15385;SDS011;7791;47.246;9.648;2023-04-03T06:05:26;15.10;;;9.73;;
15385;SDS011;7791;47.246;9.648;2023-04-03T06:07:52;13.53;;;9.53;;
15385;SDS011;7791;47.246;9.648;2023-04-03T06:10:18;14.17;;;9.47;;
15385;SDS011;7791;47.246;9.648;2023-04-03T06:12:43;13.23;;;9.37;;
15385;SDS011;7791;47.246;9.648;2023-04-03T06:15:09;14.87;;;9.57;;
15385;SDS011;7791;47.246;9.648;2023-04-03T06:17:35;13.80;;;9.57;;
15385;SDS011;7791;47.246;9.648;2023-04-03T06:20:01;12.70;;;9.43;;
15385;SDS011;7791;47.246;9.648;2023-04-03T06:22:28;17.73;;;10.27;;
15385;SDS011;7791;47.246;9.648;2023-04-03T06:24:54;14.67;;;10.07;;
15385;SDS011;7791;47.246;9.648;2023-04-03T06:27:20;17.10;;;9.90;;
15385;SDS011;7791;47.246;9.648;2023-04-03T06:29:46;16.37;;;10.67;;
15385;SDS011;7791;47.246;9.648;2023-04-03T06:32:12;15.77;;;9.90;;
15385;SDS011;7791;47.246;9.648;2023-04-03T06:34:37;16.23;;;9.90;;
15385;SDS011;7791;47.246;9.648;2023-04-03T06:37:03;16.23;;;10.53;;
15385;SDS011;7791;47.246;9.648;2023-04-03T06:39:30;16.83;;;10.97;;
15385;SDS011;7791;47.246;9.648;2023-04-03T06:41:56;15.43;;;11.13;;
15385;SDS011;7791;47.246;9.648;2023-04-03T06:44:28;17.00;;;10.80;;
15385;SDS011;7791;47.246;9.648;2023-04-03T06:46:53;16.30;;;11.40;;
15385;SDS011;7791;47.246;9.648;2023-04-03T06:55:27;16.37;;;10.73;;
15385;SDS011;7791;47.246;9.648;2023-04-03T06:57:53;16.47;;;11.27;;
15385;SDS011;7791;47.246;9.648;2023-04-03T07:00:19;16.27;;;10.87;;
15385;SDS011;7791;47.246;9.648;2023-04-03T07:02:45;19.10;;;11.93;;
15385;SDS011;7791;47.246;9.648;2023-04-03T07:05:17;16.30;;;11.40;;
15385;SDS011;7791;47.246;9.648;2023-04-03T07:07:45;16.60;;;10.40;;
15385;SDS011;7791;47.246;9.648;2023-04-03T07:10:11;16.47;;;10.87;;
15385;SDS011;7791;47.246;9.648;2023-04-03T07:12:38;16.77;;;10.77;;
15385;SDS011;7791;47.246;9.648;2023-04-03T07:15:04;16.47;;;11.23;;
15385;SDS011;7791;47.246;9.648;2023-04-03T07:17:31;18.67;;;12.77;;
15385;SDS011;7791;47.246;9.648;2023-04-03T07:19:57;19.27;;;13.30;;
15385;SDS011;7791;47.246;9.648;2023-04-03T07:22:26;22.23;;;12.37;;
15385;SDS011;7791;47.246;9.648;2023-04-03T07:24:52;18.73;;;12.77;;
15385;SDS011;7791;47.246;9.648;2023-04-03T07:27:17;22.87;;;13.63;;
15385;SDS011;7791;47.246;9.648;2023-04-03T07:29:44;22.47;;;14.00;;
15385;SDS011;7791;47.246;9.648;2023-04-03T07:32:10;17.37;;;11.40;;
15385;SDS011;7791;47.246;9.648;2023-04-03T07:34:36;17.80;;;11.47;;
15385;SDS011;7791;47.246;9.648;2023-04-03T07:37:02;17.90;;;10.90;;
15385;SDS011;7791;47.246;9.648;2023-04-03T07:39:27;17.17;;;11.40;;
15385;SDS011;7791;47.246;9.648;2023-04-03T07:41:53;17.97;;;11.73;;
15385;SDS011;7791;47.246;9.648;2023-04-03T07:44:19;16.70;;;11.60;;
15385;SDS011;7791;47.246;9.648;2023-04-03T07:46:49;17.27;;;11.47;;
15385;SDS011;7791;47.246;9.648;2023-04-03T07:49:14;18.00;;;11.20;;
15385;SDS011;7791;47.246;9.648;2023-04-03T07:51:40;14.70;;;10.17;;
15385;SDS011;7791;47.246;9.648;2023-04-03T07:54:06;14.43;;;10.23;;
15385;SDS011;7791;47.246;9.648;2023-04-03T07:56:31;13.37;;;9.20;;
15385;SDS011;7791;47.246;9.648;2023-04-03T07:58:57;14.10;;;9.53;;
15385;SDS011;7791;47.246;9.648;2023-04-03T08:01:23;13.43;;;9.80;;
15385;SDS011;7791;47.246;9.648;2023-04-03T08:03:51;15.30;;;9.83;;
15385;SDS011;7791;47.246;9.648;2023-04-03T08:06:16;13.10;;;9.30;;
15385;SDS011;7791;47.246;9.648;2023-04-03T08:08:42;13.87;;;9.40;;
15385;SDS011;7791;47.246;9.648;2023-04-03T08:11:09;12.53;;;8.67;;
15385;SDS011;7791;47.246;9.648;2023-04-03T08:13:36;12.57;;;8.60;;
15385;SDS011;7791;47.246;9.648;2023-04-03T08:16:11;13.53;;;9.10;;
15385;SDS011;7791;47.246;9.648;2023-04-03T08:18:38;14.00;;;9.47;;
15385;SDS011;7791;47.246;9.648;2023-04-03T08:21:08;13.63;;;9.50;;
15385;SDS011;7791;47.246;9.648;2023-04-03T08:23:35;13.77;;;9.03;;
15385;SDS011;7791;47.246;9.648;2023-04-03T08:26:05;14.77;;;8.87;;
15385;SDS011;7791;47.246;9.648;2023-04-03T08:28:32;12.20;;;9.17;;
15385;SDS011;7791;47.246;9.648;2023-04-03T08:31:01;14.77;;;9.63;;
15385;SDS011;7791;47.246;9.648;2023-04-03T08:33:28;13.60;;;9.63;;
15385;SDS011;7791;47.246;9.648;2023-04-03T08:35:53;14.47;;;9.17;;
15385;SDS011;7791;47.246;9.648;2023-04-03T08:38:21;13.90;;;9.77;;
15385;SDS011;7791;47.246;9.648;2023-04-03T08:40:46;13.23;;;9.03;;
15385;SDS011;7791;47.246;9.648;2023-04-03T08:43:20;16.17;;;10.00;;
15385;SDS011;7791;47.246;9.648;2023-04-03T08:46:00;12.97;;;9.03;;
15385;SDS011;7791;47.246;9.648;2023-04-03T08:48:27;14.63;;;8.83;;
15385;SDS011;7791;47.246;9.648;2023-04-03T08:50:57;14.60;;;9.93;;
15385;SDS011;7791;47.246;9.648;2023-04-03T08:53:30;13.27;;;9.47;;
15385;SDS011;7791;47.246;9.648;2023-04-03T08:56:02;20.27;;;10.50;;
15385;SDS011;7791;47.246;9.648;2023-04-03T08:58:33;15.13;;;10.03;;
15385;SDS011;7791;47.246;9.648;2023-04-03T09:01:12;13.43;;;9.57;;
15385;SDS011;7791;47.246;9.648;2023-04-03T09:03:43;16.53;;;9.70;;
15385;SDS011;7791;47.246;9.648;2023-04-03T09:06:10;14.83;;;9.47;;
15385;SDS011;7791;47.246;9.648;2023-04-03T09:08:40;13.13;;;8.73;;
15385;SDS011;7791;47.246;9.648;2023-04-03T09:11:12;13.97;;;8.60;;
15385;SDS011;7791;47.246;9.648;2023-04-03T09:13:47;13.20;;;8.67;;
15385;SDS011;7791;47.246;9.648;2023-04-03T09:16:25;15.40;;;9.10;;
15385;SDS011;7791;47.246;9.648;2023-04-03T09:19:02;13.53;;;8.40;;
15385;SDS011;7791;47.246;9.648;2023-04-03T09:21:34;13.23;;;9.50;;
15385;SDS011;7791;47.246;9.648;2023-04-03T09:24:04;12.63;;;8.43;;
15385;SDS011;7791;47.246;9.648;2023-04-03T09:26:33;12.83;;;8.33;;
15385;SDS011;7791;47.246;9.648;2023-04-03T09:29:04;16.27;;;8.53;;
15385;SDS011;7791;47.246;9.648;2023-04-03T09:31:35;13.47;;;8.90;;
15385;SDS011;7791;47.246;9.648;2023-04-03T09:34:04;12.73;;;8.07;;
15385;SDS011;7791;47.246;9.648;2023-04-03T09:36:41;12.90;;;8.50;;
15385;SDS011;7791;47.246;9.648;2023-04-03T09:39:11;12.10;;;8.40;;
15385;SDS011;7791;47.246;9.648;2023-04-03T09:41:39;13.87;;;7.90;;
15385;SDS011;7791;47.246;9.648;2023-04-03T09:44:17;13.57;;;8.20;;
15385;SDS011;7791;47.246;9.648;2023-04-03T09:46:46;13.77;;;8.20;;
15385;SDS011;7791;47.246;9.648;2023-04-03T09:49:12;12.00;;;8.07;;
15385;SDS011;7791;47.246;9.648;2023-04-03T09:51:38;11.73;;;7.73;;
15385;SDS011;7791;47.246;9.648;2023-04-03T09:54:23;12.47;;;8.30;;
15385;SDS011;7791;47.246;9.648;2023-04-03T09:57:03;13.53;;;8.13;;
15385;SDS011;7791;47.246;9.648;2023-04-03T09:59:34;11.10;;;7.87;;
15385;SDS011;7791;47.246;9.648;2023-04-03T10:02:02;13.90;;;7.37;;
15385;SDS011;7791;47.246;9.648;2023-04-03T10:04:41;12.50;;;7.63;;
15385;SDS011;7791;47.246;9.648;2023-04-03T10:07:26;10.30;;;7.30;;
15385;SDS011;7791;47.246;9.648;2023-04-03T10:09:57;11.33;;;7.87;;
15385;SDS011;7791;47.246;9.648;2023-04-03T10:12:23;13.90;;;8.23;;
15385;SDS011;7791;47.246;9.648;2023-04-03T10:14:54;11.83;;;7.07;;
15385;SDS011;7791;47.246;9.648;2023-04-03T10:17:22;9.13;;;6.97;;
15385;SDS011;7791;47.246;9.648;2023-04-03T10:19:57;10.03;;;6.90;;
15385;SDS011;7791;47.246;9.648;2023-04-03T10:22:28;10.83;;;6.77;;
15385;SDS011;7791;47.246;9.648;2023-04-03T10:25:04;10.53;;;6.20;;
15385;SDS011;7791;47.246;9.648;2023-04-03T10:27:42;9.17;;;6.10;;
15385;SDS011;7791;47.246;9.648;2023-04-03T10:30:18;9.13;;;5.93;;
15385;SDS011;7791;47.246;9.648;2023-04-03T10:32:55;9.70;;;5.47;;
15385;SDS011;7791;47.246;9.648;2023-04-03T10:35:32;7.43;;;5.50;;
15385;SDS011;7791;47.246;9.648;2023-04-03T10:38:08;7.40;;;5.40;;
15385;SDS011;7791;47.246;9.648;2023-04-03T10:40:41;10.53;;;5.67;;
15385;SDS011;7791;47.246;9.648;2023-04-03T10:43:15;8.27;;;5.37;;
15385;SDS011;7791;47.246;9.648;2023-04-03T10:45:49;9.13;;;5.30;;
15385;SDS011;7791;47.246;9.648;2023-04-03T10:48:23;8.27;;;5.27;;
15385;SDS011;7791;47.246;9.648;2023-04-03T10:51:00;7.13;;;5.20;;
15385;SDS011;7791;47.246;9.648;2023-04-03T10:53:34;7.67;;;5.17;;
15385;SDS011;7791;47.246;9.648;2023-04-03T10:56:07;5.37;;;4.27;;
15385;SDS011;7791;47.246;9.648;2023-04-03T10:58:38;5.93;;;4.27;;
15385;SDS011;7791;47.246;9.648;2023-04-03T11:01:08;7.23;;;4.53;;
15385;SDS011;7791;47.246;9.648;2023-04-03T11:03:38;7.43;;;4.63;;
15385;SDS011;7791;47.246;9.648;2023-04-03T11:06:08;5.73;;;4.23;;
15385;SDS011;7791;47.246;9.648;2023-04-03T11:08:38;7.47;;;4.83;;
15385;SDS011;7791;47.246;9.648;2023-04-03T11:11:11;7.07;;;4.43;;
15385;SDS011;7791;47.246;9.648;2023-04-03T11:13:41;9.20;;;6.23;;
15385;SDS011;7791;47.246;9.648;2023-04-03T11:16:12;11.93;;;6.00;;
15385;SDS011;7791;47.246;9.648;2023-04-03T11:18:43;10.97;;;7.30;;
15385;SDS011;7791;47.246;9.648;2023-04-03T11:21:14;5.60;;;4.33;;
15385;SDS011;7791;47.246;9.648;2023-04-03T11:23:44;5.57;;;4.43;;
15385;SDS011;7791;47.246;9.648;2023-04-03T11:26:13;6.17;;;4.60;;
15385;SDS011;7791;47.246;9.648;2023-04-03T11:28:40;6.30;;;4.97;;
15385;SDS011;7791;47.246;9.648;2023-04-03T11:31:10;7.50;;;4.90;;
15385;SDS011;7791;47.246;9.648;2023-04-03T11:33:47;8.27;;;5.10;;
15385;SDS011;7791;47.246;9.648;2023-04-03T11:36:21;5.93;;;4.23;;
15385;SDS011;7791;47.246;9.648;2023-04-03T11:38:51;7.17;;;4.60;;
15385;SDS011;7791;47.246;9.648;2023-04-03T11:41:23;6.30;;;4.57;;
15385;SDS011;7791;47.246;9.648;2023-04-03T11:43:57;6.47;;;4.70;;
15385;SDS011;7791;47.246;9.648;2023-04-03T11:52:27;6.97;;;5.20;;
15385;SDS011;7791;47.246;9.648;2023-04-03T11:55:52;7.07;;;5.03;;
15385;SDS011;7791;47.246;9.648;2023-04-03T11:58:21;8.50;;;5.47;;
15385;SDS011;7791;47.246;9.648;2023-04-03T12:00:49;6.50;;;4.83;;
15385;SDS011;7791;47.246;9.648;2023-04-03T12:09:28;8.03;;;5.23;;
15385;SDS011;7791;47.246;9.648;2023-04-03T12:12:00;9.83;;;5.50;;
15385;SDS011;7791;47.246;9.648;2023-04-03T12:14:47;6.50;;;5.00;;
15385;SDS011;7791;47.246;9.648;2023-04-03T12:17:17;8.07;;;5.23;;
15385;SDS011;7791;47.246;9.648;2023-04-03T12:19:47;27.90;;;12.87;;
15385;SDS011;7791;47.246;9.648;2023-04-03T12:22:14;9.73;;;5.30;;
15385;SDS011;7791;47.246;9.648;2023-04-03T12:24:44;8.20;;;5.73;;
15385;SDS011;7791;47.246;9.648;2023-04-03T12:27:18;7.30;;;5.40;;
15385;SDS011;7791;47.246;9.648;2023-04-03T12:29:55;6.53;;;5.13;;
15385;SDS011;7791;47.246;9.648;2023-04-03T12:32:29;6.80;;;5.13;;
15385;SDS011;7791;47.246;9.648;2023-04-03T12:35:21;7.27;;;5.30;;
15385;SDS011;7791;47.246;9.648;2023-04-03T12:40:48;8.00;;;5.00;;
15385;SDS011;7791;47.246;9.648;2023-04-03T12:43:20;7.83;;;5.57;;
15385;SDS011;7791;47.246;9.648;2023-04-03T12:45:58;7.87;;;4.90;;
15385;SDS011;7791;47.246;9.648;2023-04-03T12:48:29;8.80;;;4.77;;
15385;SDS011;7791;47.246;9.648;2023-04-03T12:50:56;7.23;;;5.10;;
15385;SDS011;7791;47.246;9.648;2023-04-03T12:53:24;8.90;;;5.00;;
15385;SDS011;7791;47.246;9.648;2023-04-03T12:55:53;6.80;;;4.33;;
15385;SDS011;7791;47.246;9.648;2023-04-03T12:58:21;4.47;;;3.60;;
15385;SDS011;7791;47.246;9.648;2023-04-03T13:00:59;6.13;;;3.90;;
15385;SDS011;7791;47.246;9.648;2023-04-03T13:03:27;6.83;;;4.40;;
15385;SDS011;7791;47.246;9.648;2023-04-03T13:05:57;5.40;;;4.37;;
15385;SDS011;7791;47.246;9.648;2023-04-03T13:08:25;6.27;;;4.43;;
15385;SDS011;7791;47.246;9.648;2023-04-03T13:10:53;5.17;;;3.97;;
15385;SDS011;7791;47.246;9.648;2023-04-03T13:13:22;6.27;;;4.40;;
15385;SDS011;7791;47.246;9.648;2023-04-03T13:15:48;5.20;;;3.57;;
15385;SDS011;7791;47.246;9.648;2023-04-03T13:18:25;6.20;;;3.83;;
15385;SDS011;7791;47.246;9.648;2023-04-03T13:20:53;5.87;;;4.23;;
15385;SDS011;7791;47.246;9.648;2023-04-03T13:23:25;8.27;;;4.50;;
15385;SDS011;7791;47.246;9.648;2023-04-03T13:25:51;5.90;;;3.77;;
15385;SDS011;7791;47.246;9.648;2023-04-03T13:28:18;6.87;;;4.50;;
15385;SDS011;7791;47.246;9.648;2023-04-03T13:30:54;5.03;;;3.77;;
15385;SDS011;7791;47.246;9.648;2023-04-03T13:33:25;4.33;;;3.53;;
15385;SDS011;7791;47.246;9.648;2023-04-03T13:35:56;6.57;;;4.10;;
15385;SDS011;7791;47.246;9.648;2023-04-03T13:38:23;4.13;;;3.33;;
15385;SDS011;7791;47.246;9.648;2023-04-03T13:40:51;7.27;;;4.23;;
15385;SDS011;7791;47.246;9.648;2023-04-03T13:43:19;7.57;;;5.57;;
15385;SDS011;7791;47.246;9.648;2023-04-03T13:45:59;5.70;;;3.53;;
15385;SDS011;7791;47.246;9.648;2023-04-03T13:48:29;5.33;;;3.53;;
15385;SDS011;7791;47.246;9.648;2023-04-03T13:51:02;5.77;;;3.57;;
15385;SDS011;7791;47.246;9.648;2023-04-03T13:53:31;7.43;;;3.50;;
15385;SDS011;7791;47.246;9.648;2023-04-03T13:56:00;3.97;;;3.00;;
15385;SDS011;7791;47.246;9.648;2023-04-03T13:58:32;4.73;;;2.93;;
15385;SDS011;7791;47.246;9.648;2023-04-03T14:01:00;3.13;;;2.60;;
15385;SDS011;7791;47.246;9.648;2023-04-03T14:03:40;4.37;;;3.20;;
15385;SDS011;7791;47.246;9.648;2023-04-03T14:06:10;4.67;;;2.93;;
15385;SDS011;7791;47.246;9.648;2023-04-03T14:08:37;3.67;;;2.67;;
15385;SDS011;7791;47.246;9.648;2023-04-03T14:11:02;3.97;;;2.80;;
15385;SDS011;7791;47.246;9.648;2023-04-03T14:13:29;4.43;;;3.20;;
15385;SDS011;7791;47.246;9.648;2023-04-03T14:15:56;3.70;;;2.63;;
15385;SDS011;7791;47.246;9.648;2023-04-03T14:18:22;2.77;;;2.20;;
15385;SDS011;7791;47.246;9.648;2023-04-03T14:20:49;4.93;;;3.13;;
15385;SDS011;7791;47.246;9.648;2023-04-03T14:23:15;4.80;;;2.83;;
15385;SDS011;7791;47.246;9.648;2023-04-03T14:25:41;3.37;;;2.57;;
15385;SDS011;7791;47.246;9.648;2023-04-03T14:28:13;4.07;;;2.77;;
15385;SDS011;7791;47.246;9.648;2023-04-03T14:30:40;5.57;;;2.93;;
15385;SDS011;7791;47.246;9.648;2023-04-03T14:33:09;4.83;;;2.63;;
15385;SDS011;7791;47.246;9.648;2023-04-03T14:35:37;4.83;;;2.70;;
15385;SDS011;7791;47.246;9.648;2023-04-03T14:38:06;3.40;;;2.70;;
15385;SDS011;7791;47.246;9.648;2023-04-03T14:40:45;4.30;;;3.00;;
15385;SDS011;7791;47.246;9.648;2023-04-03T14:43:11;4.10;;;2.80;;
15385;SDS011;7791;47.246;9.648;2023-04-03T14:45:38;4.77;;;2.47;;
15385;SDS011;7791;47.246;9.648;2023-04-03T14:48:04;2.67;;;2.13;;
15385;SDS011;7791;47.246;9.648;2023-04-03T14:50:34;3.57;;;2.53;;
15385;SDS011;7791;47.246;9.648;2023-04-03T14:53:00;4.63;;;2.57;;
15385;SDS011;7791;47.246;9.648;2023-04-03T14:55:27;5.80;;;2.73;;
15385;SDS011;7791;47.246;9.648;2023-04-03T14:57:54;4.20;;;2.63;;
15385;SDS011;7791;47.246;9.648;2023-04-03T15:00:21;5.83;;;2.80;;
15385;SDS011;7791;47.246;9.648;2023-04-03T15:02:47;3.53;;;2.50;;
15385;SDS011;7791;47.246;9.648;2023-04-03T15:05:13;5.03;;;2.60;;
15385;SDS011;7791;47.246;9.648;2023-04-03T15:07:41;3.77;;;2.93;;
15385;SDS011;7791;47.246;9.648;2023-04-03T15:10:30;4.03;;;2.43;;
15385;SDS011;7791;47.246;9.648;2023-04-03T15:12:56;4.03;;;2.53;;
15385;SDS011;7791;47.246;9.648;2023-04-03T15:15:23;3.53;;;2.50;;
15385;SDS011;7791;47.246;9.648;2023-04-03T15:17:50;4.37;;;2.73;;
15385;SDS011;7791;47.246;9.648;2023-04-03T15:20:19;3.70;;;2.70;;
15385;SDS011;7791;47.246;9.648;2023-04-03T15:22:46;3.37;;;2.50;;
15385;SDS011;7791;47.246;9.648;2023-04-03T15:25:12;5.27;;;2.53;;